sensor_id;sensor_type;location;lat;lon;timestamp;temperature;humidity
21197;DHT22;10756;51.014;3.786;2022-08-06T00:00:22;13.60;99.90
21197;DHT22;10756;51.014;3.786;2022-08-06T00:02:48;13.70;99.90
21197;DHT22;10756;51.014;3.786;2022-08-06T00:05:14;13.70;99.90
21197;DHT22;10756;51.014;3.786;2022-08-06T00:07:39;13.60;99.90
21197;DHT22;10756;51.014;3.786;2022-08-06T00:10:05;13.50;99.90
21197;DHT22;10756;51.014;3.786;2022-08-06T00:12:32;13.30;99.90
21197;DHT22;10756;51.014;3.786;2022-08-06T00:14:58;13.30;99.90
21197;DHT22;10756;51.014;3.786;2022-08-06T00:17:24;13.40;99.90
21197;DHT22;10756;51.014;3.786;2022-08-06T00:19:50;13.50;99.90
21197;DHT22;10756;51.014;3.786;2022-08-06T00:22:16;13.50;99.90
21197;DHT22;10756;51.014;3.786;2022-08-06T00:24:41;13.60;99.90
21197;DHT22;10756;51.014;3.786;2022-08-06T00:27:07;13.50;99.90
21197;DHT22;10756;51.014;3.786;2022-08-06T00:29:33;13.40;99.90
21197;DHT22;10756;51.014;3.786;2022-08-06T00:31:58;13.60;99.90
21197;DHT22;10756;51.014;3.786;2022-08-06T00:34:24;13.70;99.90
21197;DHT22;10756;51.014;3.786;2022-08-06T00:36:50;13.70;99.90
21197;DHT22;10756;51.014;3.786;2022-08-06T00:39:15;13.60;99.90
21197;DHT22;10756;51.014;3.786;2022-08-06T00:41:41;13.60;99.90
21197;DHT22;10756;51.014;3.786;2022-08-06T00:44:07;13.50;99.90
21197;DHT22;10756;51.014;3.786;2022-08-06T00:46:33;13.40;99.90
21197;DHT22;10756;51.014;3.786;2022-08-06T00:48:58;13.40;99.90
21197;DHT22;10756;51.014;3.786;2022-08-06T00:51:24;13.40;99.90
21197;DHT22;10756;51.014;3.786;2022-08-06T00:53:51;13.40;99.90
21197;DHT22;10756;51.014;3.786;2022-08-06T00:56:16;13.30;99.90
21197;DHT22;10756;51.014;3.786;2022-08-06T00:58:42;13.40;99.90
21197;DHT22;10756;51.014;3.786;2022-08-06T01:01:08;13.40;99.90
21197;DHT22;10756;51.014;3.786;2022-08-06T01:03:34;13.30;99.90
21197;DHT22;10756;51.014;3.786;2022-08-06T01:06:00;13.40;99.90
21197;DHT22;10756;51.014;3.786;2022-08-06T01:08:25;13.20;99.90
21197;DHT22;10756;51.014;3.786;2022-08-06T01:10:51;13.30;99.90
21197;DHT22;10756;51.014;3.786;2022-08-06T01:13:16;13.20;99.90
21197;DHT22;10756;51.014;3.786;2022-08-06T01:15:51;13.20;99.90
21197;DHT22;10756;51.014;3.786;2022-08-06T01:18:27;13.10;99.90
21197;DHT22;10756;51.014;3.786;2022-08-06T01:31:38;13.00;99.90
21197;DHT22;10756;51.014;3.786;2022-08-06T01:34:17;13.00;99.90
21197;DHT22;10756;51.014;3.786;2022-08-06T01:36:48;12.90;99.90
21197;DHT22;10756;51.014;3.786;2022-08-06T01:39:17;12.80;99.90
21197;DHT22;10756;51.014;3.786;2022-08-06T01:41:46;12.90;99.90
21197;DHT22;10756;51.014;3.786;2022-08-06T01:44:17;12.90;99.90
21197;DHT22;10756;51.014;3.786;2022-08-06T01:46:47;12.80;99.90
21197;DHT22;10756;51.014;3.786;2022-08-06T01:49:18;12.80;99.90
21197;DHT22;10756;51.014;3.786;2022-08-06T01:51:46;12.80;99.90
21197;DHT22;10756;51.014;3.786;2022-08-06T01:54:13;12.80;99.90
21197;DHT22;10756;51.014;3.786;2022-08-06T01:56:41;12.80;99.90
21197;DHT22;10756;51.014;3.786;2022-08-06T01:59:10;12.80;99.90
21197;DHT22;10756;51.014;3.786;2022-08-06T02:01:38;12.80;99.90
21197;DHT22;10756;51.014;3.786;2022-08-06T02:04:05;12.70;99.90
21197;DHT22;10756;51.014;3.786;2022-08-06T02:06:35;12.60;99.90
21197;DHT22;10756;51.014;3.786;2022-08-06T02:09:08;12.70;99.90
21197;DHT22;10756;51.014;3.786;2022-08-06T02:11:36;12.90;99.90
21197;DHT22;10756;51.014;3.786;2022-08-06T02:14:03;12.80;99.90
21197;DHT22;10756;51.014;3.786;2022-08-06T02:16:35;12.80;99.90
21197;DHT22;10756;51.014;3.786;2022-08-06T02:19:03;12.80;99.90
21197;DHT22;10756;51.014;3.786;2022-08-06T02:21:32;12.70;99.90
21197;DHT22;10756;51.014;3.786;2022-08-06T02:24:01;12.70;99.90
21197;DHT22;10756;51.014;3.786;2022-08-06T02:26:28;12.80;99.90
21197;DHT22;10756;51.014;3.786;2022-08-06T02:28:57;12.70;99.90
21197;DHT22;10756;51.014;3.786;2022-08-06T02:31:24;12.70;99.90
21197;DHT22;10756;51.014;3.786;2022-08-06T02:33:50;12.60;99.90
21197;DHT22;10756;51.014;3.786;2022-08-06T02:36:24;12.50;99.90
21197;DHT22;10756;51.014;3.786;2022-08-06T02:39:03;12.50;99.90
21197;DHT22;10756;51.014;3.786;2022-08-06T02:41:38;12.50;99.90
21197;DHT22;10756;51.014;3.786;2022-08-06T02:49:45;12.60;99.90
21197;DHT22;10756;51.014;3.786;2022-08-06T02:52:16;12.70;99.90
21197;DHT22;10756;51.014;3.786;2022-08-06T02:54:49;12.80;99.90
21197;DHT22;10756;51.014;3.786;2022-08-06T02:57:28;12.90;99.90
21197;DHT22;10756;51.014;3.786;2022-08-06T03:00:02;12.80;99.90
21197;DHT22;10756;51.014;3.786;2022-08-06T03:02:29;12.90;99.90
21197;DHT22;10756;51.014;3.786;2022-08-06T03:04:57;12.80;99.90
21197;DHT22;10756;51.014;3.786;2022-08-06T03:07:28;12.70;99.90
21197;DHT22;10756;51.014;3.786;2022-08-06T03:09:56;12.60;99.90
21197;DHT22;10756;51.014;3.786;2022-08-06T03:12:23;12.60;99.90
21197;DHT22;10756;51.014;3.786;2022-08-06T03:14:51;12.50;99.90
21197;DHT22;10756;51.014;3.786;2022-08-06T03:17:18;12.50;99.90
21197;DHT22;10756;51.014;3.786;2022-08-06T03:19:45;12.60;99.90
21197;DHT22;10756;51.014;3.786;2022-08-06T03:22:11;12.50;99.90
21197;DHT22;10756;51.014;3.786;2022-08-06T03:24:39;12.50;99.90
21197;DHT22;10756;51.014;3.786;2022-08-06T03:27:06;12.40;99.90
21197;DHT22;10756;51.014;3.786;2022-08-06T03:29:34;12.40;99.90
21197;DHT22;10756;51.014;3.786;2022-08-06T03:32:01;12.50;99.90
21197;DHT22;10756;51.014;3.786;2022-08-06T03:34:29;12.40;99.90
21197;DHT22;10756;51.014;3.786;2022-08-06T03:36:57;12.40;99.90
21197;DHT22;10756;51.014;3.786;2022-08-06T03:39:23;12.40;99.90
21197;DHT22;10756;51.014;3.786;2022-08-06T03:41:50;12.40;99.90
21197;DHT22;10756;51.014;3.786;2022-08-06T03:44:17;12.40;99.90
21197;DHT22;10756;51.014;3.786;2022-08-06T03:46:46;12.40;99.90
21197;DHT22;10756;51.014;3.786;2022-08-06T03:49:25;12.50;99.90
21197;DHT22;10756;51.014;3.786;2022-08-06T03:51:53;12.50;99.90
21197;DHT22;10756;51.014;3.786;2022-08-06T03:54:26;12.30;99.90
21197;DHT22;10756;51.014;3.786;2022-08-06T03:56:55;12.30;99.90
21197;DHT22;10756;51.014;3.786;2022-08-06T03:59:23;12.20;99.90
21197;DHT22;10756;51.014;3.786;2022-08-06T04:01:51;12.20;99.90
21197;DHT22;10756;51.014;3.786;2022-08-06T04:04:18;12.30;99.90
21197;DHT22;10756;51.014;3.786;2022-08-06T04:06:45;12.30;99.90
21197;DHT22;10756;51.014;3.786;2022-08-06T04:09:12;12.20;99.90
21197;DHT22;10756;51.014;3.786;2022-08-06T04:11:38;12.20;99.90
21197;DHT22;10756;51.014;3.786;2022-08-06T04:14:05;12.10;99.90
21197;DHT22;10756;51.014;3.786;2022-08-06T04:16:32;12.10;99.90
21197;DHT22;10756;51.014;3.786;2022-08-06T04:18:58;12.10;99.90
21197;DHT22;10756;51.014;3.786;2022-08-06T04:21:25;12.10;99.90
21197;DHT22;10756;51.014;3.786;2022-08-06T04:23:51;12.20;99.90
21197;DHT22;10756;51.014;3.786;2022-08-06T04:26:21;12.30;99.90
21197;DHT22;10756;51.014;3.786;2022-08-06T04:28:49;12.40;99.90
21197;DHT22;10756;51.014;3.786;2022-08-06T04:31:18;12.50;99.90
21197;DHT22;10756;51.014;3.786;2022-08-06T04:33:45;12.40;99.90
21197;DHT22;10756;51.014;3.786;2022-08-06T04:36:11;12.30;99.90
21197;DHT22;10756;51.014;3.786;2022-08-06T04:38:38;12.20;99.90
21197;DHT22;10756;51.014;3.786;2022-08-06T04:41:05;12.20;99.90
21197;DHT22;10756;51.014;3.786;2022-08-06T04:43:31;12.20;99.90
21197;DHT22;10756;51.014;3.786;2022-08-06T04:45:57;12.20;99.90
21197;DHT22;10756;51.014;3.786;2022-08-06T04:48:23;12.20;99.90
21197;DHT22;10756;51.014;3.786;2022-08-06T04:50:49;12.10;99.90
21197;DHT22;10756;51.014;3.786;2022-08-06T04:53:17;12.10;99.90
21197;DHT22;10756;51.014;3.786;2022-08-06T04:55:45;12.40;99.90
21197;DHT22;10756;51.014;3.786;2022-08-06T04:58:12;12.50;99.90
21197;DHT22;10756;51.014;3.786;2022-08-06T05:00:40;12.60;99.90
21197;DHT22;10756;51.014;3.786;2022-08-06T05:03:07;12.70;99.90
21197;DHT22;10756;51.014;3.786;2022-08-06T05:08:14;12.80;99.90
21197;DHT22;10756;51.014;3.786;2022-08-06T05:10:54;12.90;99.90
21197;DHT22;10756;51.014;3.786;2022-08-06T05:13:22;13.00;99.90
21197;DHT22;10756;51.014;3.786;2022-08-06T05:15:56;13.10;99.90
21197;DHT22;10756;51.014;3.786;2022-08-06T05:18:30;13.10;99.90
21197;DHT22;10756;51.014;3.786;2022-08-06T05:21:00;13.10;99.90
21197;DHT22;10756;51.014;3.786;2022-08-06T05:23:39;13.10;99.90
21197;DHT22;10756;51.014;3.786;2022-08-06T05:26:06;13.20;99.90
21197;DHT22;10756;51.014;3.786;2022-08-06T05:28:33;13.30;99.90
21197;DHT22;10756;51.014;3.786;2022-08-06T05:30:58;13.80;99.90
21197;DHT22;10756;51.014;3.786;2022-08-06T05:33:29;14.30;99.90
21197;DHT22;10756;51.014;3.786;2022-08-06T05:36:00;14.60;99.90
21197;DHT22;10756;51.014;3.786;2022-08-06T05:38:27;14.60;99.90
21197;DHT22;10756;51.014;3.786;2022-08-06T05:40:53;14.80;99.90
21197;DHT22;10756;51.014;3.786;2022-08-06T05:43:21;14.80;99.90
21197;DHT22;10756;51.014;3.786;2022-08-06T05:45:48;14.90;99.90
21197;DHT22;10756;51.014;3.786;2022-08-06T05:48:17;14.80;99.90
21197;DHT22;10756;51.014;3.786;2022-08-06T05:50:48;14.70;99.90
21197;DHT22;10756;51.014;3.786;2022-08-06T05:53:19;14.70;99.90
21197;DHT22;10756;51.014;3.786;2022-08-06T05:55:59;14.40;99.90
21197;DHT22;10756;51.014;3.786;2022-08-06T05:58:31;14.40;99.90
21197;DHT22;10756;51.014;3.786;2022-08-06T06:01:02;14.40;99.90
21197;DHT22;10756;51.014;3.786;2022-08-06T06:03:28;14.70;99.90
21197;DHT22;10756;51.014;3.786;2022-08-06T06:05:56;14.90;99.90
21197;DHT22;10756;51.014;3.786;2022-08-06T06:08:22;15.00;99.90
21197;DHT22;10756;51.014;3.786;2022-08-06T06:10:48;15.10;99.90
21197;DHT22;10756;51.014;3.786;2022-08-06T06:13:14;14.90;99.90
21197;DHT22;10756;51.014;3.786;2022-08-06T06:15:45;15.20;99.90
21197;DHT22;10756;51.014;3.786;2022-08-06T06:34:02;16.00;99.90
21197;DHT22;10756;51.014;3.786;2022-08-06T06:59:13;17.30;99.90
21197;DHT22;10756;51.014;3.786;2022-08-06T07:01:39;17.30;99.90
21197;DHT22;10756;51.014;3.786;2022-08-06T07:04:09;17.40;99.90
21197;DHT22;10756;51.014;3.786;2022-08-06T07:06:39;17.50;99.90
21197;DHT22;10756;51.014;3.786;2022-08-06T07:09:27;17.70;99.90
21197;DHT22;10756;51.014;3.786;2022-08-06T07:12:27;17.70;99.90
21197;DHT22;10756;51.014;3.786;2022-08-06T07:15:09;17.90;99.90
21197;DHT22;10756;51.014;3.786;2022-08-06T07:18:03;18.00;99.90
21197;DHT22;10756;51.014;3.786;2022-08-06T07:20:30;18.10;99.90
21197;DHT22;10756;51.014;3.786;2022-08-06T07:23:18;18.30;99.90
21197;DHT22;10756;51.014;3.786;2022-08-06T07:29:28;18.40;99.90
21197;DHT22;10756;51.014;3.786;2022-08-06T07:32:13;18.50;99.90
21197;DHT22;10756;51.014;3.786;2022-08-06T07:34:41;18.50;99.90
21197;DHT22;10756;51.014;3.786;2022-08-06T07:37:16;18.50;99.90
21197;DHT22;10756;51.014;3.786;2022-08-06T07:45:48;18.80;99.90
21197;DHT22;10756;51.014;3.786;2022-08-06T09:10:23;21.80;99.90
21197;DHT22;10756;51.014;3.786;2022-08-06T09:13:14;21.70;99.90
21197;DHT22;10756;51.014;3.786;2022-08-06T10:32:11;24.20;99.90
21197;DHT22;10756;51.014;3.786;2022-08-06T10:34:55;24.40;99.90
21197;DHT22;10756;51.014;3.786;2022-08-06T10:37:23;24.50;99.90
21197;DHT22;10756;51.014;3.786;2022-08-06T10:39:54;24.30;99.90
21197;DHT22;10756;51.014;3.786;2022-08-06T10:59:50;25.50;99.90
21197;DHT22;10756;51.014;3.786;2022-08-06T11:35:41;27.80;97.90
21197;DHT22;10756;51.014;3.786;2022-08-06T11:42:11;32.20;90.90
21197;DHT22;10756;51.014;3.786;2022-08-06T11:56:30;33.90;67.20
21197;DHT22;10756;51.014;3.786;2022-08-06T12:15:37;31.80;67.30
21197;DHT22;10756;51.014;3.786;2022-08-06T12:28:38;28.80;72.80
21197;DHT22;10756;51.014;3.786;2022-08-06T12:39:07;37.40;57.40
21197;DHT22;10756;51.014;3.786;2022-08-06T12:41:47;36.60;56.30
21197;DHT22;10756;51.014;3.786;2022-08-06T12:44:43;34.80;56.20
21197;DHT22;10756;51.014;3.786;2022-08-06T13:15:48;34.90;54.10
21197;DHT22;10756;51.014;3.786;2022-08-06T13:43:43;35.70;51.10
21197;DHT22;10756;51.014;3.786;2022-08-06T13:59:29;40.50;43.30
21197;DHT22;10756;51.014;3.786;2022-08-06T15:36:44;39.00;41.60
21197;DHT22;10756;51.014;3.786;2022-08-06T15:56:48;40.30;39.20
21197;DHT22;10756;51.014;3.786;2022-08-06T16:51:03;37.80;39.70
21197;DHT22;10756;51.014;3.786;2022-08-06T17:01:08;32.60;45.80
21197;DHT22;10756;51.014;3.786;2022-08-06T17:14:30;30.40;49.50
21197;DHT22;10756;51.014;3.786;2022-08-06T19:01:53;21.90;71.10
21197;DHT22;10756;51.014;3.786;2022-08-06T19:04:38;21.70;71.90
21197;DHT22;10756;51.014;3.786;2022-08-06T19:07:05;21.60;72.20
21197;DHT22;10756;51.014;3.786;2022-08-06T19:09:33;21.50;73.20
21197;DHT22;10756;51.014;3.786;2022-08-06T19:12:00;21.40;73.70
21197;DHT22;10756;51.014;3.786;2022-08-06T19:14:25;21.30;74.40
21197;DHT22;10756;51.014;3.786;2022-08-06T19:16:51;21.40;74.80
21197;DHT22;10756;51.014;3.786;2022-08-06T19:19:18;21.20;75.60
21197;DHT22;10756;51.014;3.786;2022-08-06T19:21:44;21.00;77.00
21197;DHT22;10756;51.014;3.786;2022-08-06T19:24:10;21.00;77.30
21197;DHT22;10756;51.014;3.786;2022-08-06T19:26:36;20.90;77.90
21197;DHT22;10756;51.014;3.786;2022-08-06T19:29:02;20.80;79.00
21197;DHT22;10756;51.014;3.786;2022-08-06T19:31:29;20.70;79.80
21197;DHT22;10756;51.014;3.786;2022-08-06T19:33:54;20.70;80.40
21197;DHT22;10756;51.014;3.786;2022-08-06T19:36:20;20.60;81.30
21197;DHT22;10756;51.014;3.786;2022-08-06T19:38:46;20.50;82.60
21197;DHT22;10756;51.014;3.786;2022-08-06T19:41:11;20.30;84.30
21197;DHT22;10756;51.014;3.786;2022-08-06T19:43:37;20.20;85.40
21197;DHT22;10756;51.014;3.786;2022-08-06T19:46:03;20.20;86.60
21197;DHT22;10756;51.014;3.786;2022-08-06T19:48:29;20.00;88.00
21197;DHT22;10756;51.014;3.786;2022-08-06T19:50:54;20.00;89.10
21197;DHT22;10756;51.014;3.786;2022-08-06T19:53:20;20.00;89.90
21197;DHT22;10756;51.014;3.786;2022-08-06T19:55:46;19.90;90.50
21197;DHT22;10756;51.014;3.786;2022-08-06T19:58:12;20.00;90.70
21197;DHT22;10756;51.014;3.786;2022-08-06T20:00:38;20.10;90.90
21197;DHT22;10756;51.014;3.786;2022-08-06T20:03:03;20.10;91.30
21197;DHT22;10756;51.014;3.786;2022-08-06T20:05:29;20.00;91.70
21197;DHT22;10756;51.014;3.786;2022-08-06T20:07:55;19.90;92.50
21197;DHT22;10756;51.014;3.786;2022-08-06T20:10:20;19.70;93.30
21197;DHT22;10756;51.014;3.786;2022-08-06T20:12:46;19.50;94.40
21197;DHT22;10756;51.014;3.786;2022-08-06T20:15:15;19.40;95.00
21197;DHT22;10756;51.014;3.786;2022-08-06T20:17:45;19.40;95.90
21197;DHT22;10756;51.014;3.786;2022-08-06T20:20:11;19.30;96.90
21197;DHT22;10756;51.014;3.786;2022-08-06T20:22:38;19.20;97.90
21197;DHT22;10756;51.014;3.786;2022-08-06T20:25:06;19.10;98.70
21197;DHT22;10756;51.014;3.786;2022-08-06T20:27:32;19.10;99.50
21197;DHT22;10756;51.014;3.786;2022-08-06T20:29:59;19.10;99.90
21197;DHT22;10756;51.014;3.786;2022-08-06T20:32:24;19.10;99.90
21197;DHT22;10756;51.014;3.786;2022-08-06T20:34:50;18.80;99.90
21197;DHT22;10756;51.014;3.786;2022-08-06T20:37:16;18.80;99.90
21197;DHT22;10756;51.014;3.786;2022-08-06T20:39:42;18.80;99.90
21197;DHT22;10756;51.014;3.786;2022-08-06T20:42:08;18.70;99.90
21197;DHT22;10756;51.014;3.786;2022-08-06T20:44:34;18.70;99.90
21197;DHT22;10756;51.014;3.786;2022-08-06T20:47:00;18.70;99.90
21197;DHT22;10756;51.014;3.786;2022-08-06T20:49:26;18.70;99.90
21197;DHT22;10756;51.014;3.786;2022-08-06T20:51:51;18.60;99.90
21197;DHT22;10756;51.014;3.786;2022-08-06T20:54:17;18.40;99.90
21197;DHT22;10756;51.014;3.786;2022-08-06T20:56:43;18.40;99.90
21197;DHT22;10756;51.014;3.786;2022-08-06T20:59:09;18.40;99.90
21197;DHT22;10756;51.014;3.786;2022-08-06T21:01:36;18.40;99.90
21197;DHT22;10756;51.014;3.786;2022-08-06T21:04:02;18.30;99.90
21197;DHT22;10756;51.014;3.786;2022-08-06T21:06:28;18.10;99.90
21197;DHT22;10756;51.014;3.786;2022-08-06T21:08:53;18.00;99.90
21197;DHT22;10756;51.014;3.786;2022-08-06T21:11:19;18.10;99.90
21197;DHT22;10756;51.014;3.786;2022-08-06T21:13:46;17.90;99.90
21197;DHT22;10756;51.014;3.786;2022-08-06T21:16:12;17.90;99.90
21197;DHT22;10756;51.014;3.786;2022-08-06T21:18:37;17.90;99.90
21197;DHT22;10756;51.014;3.786;2022-08-06T21:21:04;17.90;99.90
21197;DHT22;10756;51.014;3.786;2022-08-06T21:23:29;18.00;99.90
21197;DHT22;10756;51.014;3.786;2022-08-06T21:25:55;18.00;99.90
21197;DHT22;10756;51.014;3.786;2022-08-06T21:28:21;18.00;99.90
21197;DHT22;10756;51.014;3.786;2022-08-06T21:30:48;17.90;99.90
21197;DHT22;10756;51.014;3.786;2022-08-06T21:33:14;17.90;99.90
21197;DHT22;10756;51.014;3.786;2022-08-06T21:35:41;17.80;99.90
21197;DHT22;10756;51.014;3.786;2022-08-06T21:38:06;17.70;99.90
21197;DHT22;10756;51.014;3.786;2022-08-06T21:40:32;17.50;99.90
21197;DHT22;10756;51.014;3.786;2022-08-06T21:42:58;17.50;99.90
21197;DHT22;10756;51.014;3.786;2022-08-06T21:45:24;17.50;99.90
21197;DHT22;10756;51.014;3.786;2022-08-06T21:47:51;17.50;99.90
21197;DHT22;10756;51.014;3.786;2022-08-06T21:50:17;17.40;99.90
21197;DHT22;10756;51.014;3.786;2022-08-06T21:52:45;17.20;99.90
21197;DHT22;10756;51.014;3.786;2022-08-06T21:55:11;17.10;99.90
21197;DHT22;10756;51.014;3.786;2022-08-06T21:57:43;17.00;99.90
21197;DHT22;10756;51.014;3.786;2022-08-06T22:00:17;17.10;99.90
21197;DHT22;10756;51.014;3.786;2022-08-06T22:02:55;17.20;99.90
21197;DHT22;10756;51.014;3.786;2022-08-06T22:05:21;17.00;99.90
21197;DHT22;10756;51.014;3.786;2022-08-06T22:07:47;16.80;99.90
21197;DHT22;10756;51.014;3.786;2022-08-06T22:10:12;16.80;99.90
21197;DHT22;10756;51.014;3.786;2022-08-06T22:12:38;16.80;99.90
21197;DHT22;10756;51.014;3.786;2022-08-06T22:15:04;16.80;99.90
21197;DHT22;10756;51.014;3.786;2022-08-06T22:17:30;16.70;99.90
21197;DHT22;10756;51.014;3.786;2022-08-06T22:19:55;16.50;99.90
21197;DHT22;10756;51.014;3.786;2022-08-06T22:22:21;16.50;99.90
21197;DHT22;10756;51.014;3.786;2022-08-06T22:24:47;16.60;99.90
21197;DHT22;10756;51.014;3.786;2022-08-06T22:27:12;16.60;99.90
21197;DHT22;10756;51.014;3.786;2022-08-06T22:29:38;16.80;99.90
21197;DHT22;10756;51.014;3.786;2022-08-06T22:32:15;16.80;99.90
21197;DHT22;10756;51.014;3.786;2022-08-06T22:34:40;16.70;99.90
21197;DHT22;10756;51.014;3.786;2022-08-06T22:37:06;16.50;99.90
21197;DHT22;10756;51.014;3.786;2022-08-06T22:39:32;16.20;99.90
21197;DHT22;10756;51.014;3.786;2022-08-06T22:41:58;16.10;99.90
21197;DHT22;10756;51.014;3.786;2022-08-06T22:44:23;16.10;99.90
21197;DHT22;10756;51.014;3.786;2022-08-06T22:46:49;16.10;99.90
21197;DHT22;10756;51.014;3.786;2022-08-06T22:49:15;16.20;99.90
21197;DHT22;10756;51.014;3.786;2022-08-06T22:51:40;16.20;99.90
21197;DHT22;10756;51.014;3.786;2022-08-06T22:54:06;16.20;99.90
21197;DHT22;10756;51.014;3.786;2022-08-06T22:56:31;16.20;99.90
21197;DHT22;10756;51.014;3.786;2022-08-06T22:58:57;16.10;99.90
21197;DHT22;10756;51.014;3.786;2022-08-06T23:01:22;16.10;99.90
21197;DHT22;10756;51.014;3.786;2022-08-06T23:03:48;16.00;99.90
21197;DHT22;10756;51.014;3.786;2022-08-06T23:06:14;16.10;99.90
21197;DHT22;10756;51.014;3.786;2022-08-06T23:08:39;15.90;99.90
21197;DHT22;10756;51.014;3.786;2022-08-06T23:11:05;15.90;99.90
21197;DHT22;10756;51.014;3.786;2022-08-06T23:13:31;15.80;99.90
21197;DHT22;10756;51.014;3.786;2022-08-06T23:15:56;15.80;99.90
21197;DHT22;10756;51.014;3.786;2022-08-06T23:18:22;15.70;99.90
21197;DHT22;10756;51.014;3.786;2022-08-06T23:20:47;15.60;99.90
21197;DHT22;10756;51.014;3.786;2022-08-06T23:23:13;15.50;99.90
21197;DHT22;10756;51.014;3.786;2022-08-06T23:25:38;15.60;99.90
21197;DHT22;10756;51.014;3.786;2022-08-06T23:28:04;15.60;99.90
21197;DHT22;10756;51.014;3.786;2022-08-06T23:30:29;15.50;99.90
21197;DHT22;10756;51.014;3.786;2022-08-06T23:32:55;15.50;99.90
21197;DHT22;10756;51.014;3.786;2022-08-06T23:35:21;15.60;99.90
21197;DHT22;10756;51.014;3.786;2022-08-06T23:37:46;15.50;99.90
21197;DHT22;10756;51.014;3.786;2022-08-06T23:40:12;15.50;99.90
21197;DHT22;10756;51.014;3.786;2022-08-06T23:42:37;15.40;99.90
21197;DHT22;10756;51.014;3.786;2022-08-06T23:45:04;15.40;99.90
21197;DHT22;10756;51.014;3.786;2022-08-06T23:47:29;15.40;99.90
21197;DHT22;10756;51.014;3.786;2022-08-06T23:49:55;15.40;99.90
21197;DHT22;10756;51.014;3.786;2022-08-06T23:52:21;15.30;99.90
21197;DHT22;10756;51.014;3.786;2022-08-06T23:54:46;15.30;99.90
21197;DHT22;10756;51.014;3.786;2022-08-06T23:57:12;15.20;99.90
21197;DHT22;10756;51.014;3.786;2022-08-06T23:59:37;15.30;99.90
